createdAt,value
2018-09-09T00:01:08.385Z,3.67
2018-09-09T00:03:36.787Z,3.30
2018-09-09T00:06:06.472Z,3.50
2018-09-09T00:08:34.812Z,6.03
2018-09-09T00:11:03.292Z,4.07
2018-09-09T00:13:31.656Z,11.80
2018-09-09T00:16:00.144Z,5.03
2018-09-09T00:18:28.493Z,4.10
2018-09-09T00:20:56.912Z,3.90
2018-09-09T00:23:25.245Z,4.67
2018-09-09T00:25:53.622Z,4.23
2018-09-09T00:28:21.992Z,4.30
2018-09-09T00:30:50.425Z,3.50
2018-09-09T00:33:18.786Z,4.20
2018-09-09T00:35:47.134Z,4.13
2018-09-09T00:38:15.530Z,3.27
2018-09-09T00:40:43.896Z,3.80
2018-09-09T00:43:12.299Z,3.80
2018-09-09T00:45:40.646Z,5.27
2018-09-09T00:48:09.024Z,3.20
2018-09-09T00:50:42.676Z,3.30
2018-09-09T00:53:16.548Z,4.00
2018-09-09T00:55:45.494Z,3.10
2018-09-09T00:58:13.964Z,4.50
2018-09-09T01:01:18.064Z,3.00
2018-09-09T01:03:47.577Z,3.20
2018-09-09T01:06:15.931Z,4.00
2018-09-09T01:08:44.334Z,2.93
2018-09-09T01:11:17.923Z,4.03
2018-09-09T01:13:46.290Z,4.90
2018-09-09T01:16:14.714Z,6.33
2018-09-09T01:18:43.242Z,3.70
2018-09-09T01:21:11.615Z,5.70
2018-09-09T01:23:39.939Z,4.73
2018-09-09T01:26:08.314Z,4.40
2018-09-09T01:28:36.704Z,4.63
2018-09-09T01:31:05.149Z,3.90
2018-09-09T01:33:33.810Z,3.90
2018-09-09T01:36:03.830Z,3.80
2018-09-09T01:38:32.193Z,5.83
2018-09-09T01:41:00.568Z,3.87
2018-09-09T01:43:28.899Z,5.60
2018-09-09T01:45:57.291Z,4.47
2018-09-09T01:48:25.646Z,4.10
2018-09-09T01:50:54.009Z,5.83
2018-09-09T01:53:22.371Z,6.60
2018-09-09T01:55:50.708Z,5.17
2018-09-09T01:58:19.055Z,5.03
2018-09-09T02:00:47.404Z,7.83
2018-09-09T02:03:15.793Z,5.10
2018-09-09T02:05:44.157Z,5.07
2018-09-09T02:08:12.535Z,4.77
2018-09-09T02:10:40.850Z,5.10
2018-09-09T02:13:09.216Z,6.60
2018-09-09T02:15:37.631Z,5.10
2018-09-09T02:18:06.195Z,5.23
2018-09-09T02:20:34.552Z,4.93
2018-09-09T02:23:02.922Z,5.27
2018-09-09T02:25:31.266Z,10.23
2018-09-09T02:27:59.613Z,5.77
2018-09-09T02:30:27.949Z,4.77
2018-09-09T02:32:56.309Z,5.47
2018-09-09T02:35:24.672Z,4.53
2018-09-09T02:37:53.029Z,6.20
2018-09-09T02:40:21.408Z,5.00
2018-09-09T02:42:49.763Z,4.50
2018-09-09T02:45:18.120Z,4.20
2018-09-09T02:47:46.487Z,5.33
2018-09-09T02:50:14.854Z,5.13
2018-09-09T02:52:43.196Z,6.20
2018-09-09T02:55:11.640Z,4.37
2018-09-09T02:57:39.979Z,4.83
2018-09-09T03:00:08.426Z,10.07
2018-09-09T03:02:36.903Z,4.53
2018-09-09T03:05:05.272Z,4.73
2018-09-09T03:07:33.598Z,4.30
2018-09-09T03:10:01.963Z,5.53
2018-09-09T03:12:30.266Z,4.73
2018-09-09T03:14:58.699Z,4.27
2018-09-09T03:17:27.046Z,4.83
2018-09-09T03:19:55.419Z,4.87
2018-09-09T03:22:23.773Z,5.00
2018-09-09T03:24:52.140Z,4.20
2018-09-09T03:27:20.458Z,4.50
2018-09-09T03:29:48.791Z,5.30
2018-09-09T03:32:17.165Z,9.20
2018-09-09T03:34:45.499Z,4.57
2018-09-09T03:37:13.864Z,5.70
2018-09-09T03:39:42.214Z,5.13
2018-09-09T03:42:10.582Z,5.30
2018-09-09T03:44:38.930Z,5.43
2018-09-09T03:47:07.332Z,4.17
2018-09-09T03:49:35.688Z,4.27
2018-09-09T03:52:04.305Z,5.30
2018-09-09T03:54:32.672Z,4.93
2018-09-09T03:57:01.052Z,4.90
2018-09-09T03:59:29.381Z,4.57
2018-09-09T04:01:57.767Z,4.67
2018-09-09T04:04:26.120Z,6.90
2018-09-09T04:06:54.470Z,4.07
2018-09-09T04:09:22.820Z,4.60
2018-09-09T04:11:51.232Z,3.97
2018-09-09T04:14:19.550Z,5.97
2018-09-09T04:16:47.884Z,4.53
2018-09-09T04:19:16.294Z,4.70
2018-09-09T04:21:48.986Z,4.83
2018-09-09T04:24:17.333Z,4.63
2018-09-09T04:26:45.708Z,4.60
2018-09-09T04:29:14.447Z,7.50
2018-09-09T04:31:42.872Z,4.93
2018-09-09T04:34:11.550Z,4.93
2018-09-09T04:36:39.919Z,5.83
2018-09-09T04:39:11.730Z,4.90
2018-09-09T04:41:40.334Z,4.47
2018-09-09T04:44:09.647Z,9.33
2018-09-09T04:46:38.284Z,5.03
2018-09-09T04:49:07.139Z,5.33
2018-09-09T04:51:35.484Z,5.70
2018-09-09T04:54:03.883Z,4.97
2018-09-09T04:56:32.240Z,5.13
2018-09-09T04:59:00.614Z,5.40
2018-09-09T05:01:29.065Z,5.90
2018-09-09T05:03:57.485Z,4.43
2018-09-09T05:06:25.873Z,4.00
2018-09-09T05:08:54.245Z,5.00
2018-09-09T05:11:22.583Z,4.40
2018-09-09T05:13:51.064Z,5.40
2018-09-09T05:16:19.414Z,5.93
2018-09-09T05:18:47.798Z,4.40
2018-09-09T05:21:16.174Z,6.37
2018-09-09T05:23:44.561Z,4.90
2018-09-09T05:26:12.898Z,5.07
2018-09-09T05:28:41.259Z,5.40
2018-09-09T05:31:09.642Z,6.50
2018-09-09T05:33:38.027Z,7.37
2018-09-09T05:36:06.451Z,5.87
2018-09-09T05:38:34.831Z,5.80
2018-09-09T05:41:03.170Z,5.20
2018-09-09T05:43:31.523Z,5.00
2018-09-09T05:45:59.888Z,5.50
2018-09-09T05:48:28.235Z,5.20
2018-09-09T05:50:56.587Z,5.00
2018-09-09T05:53:24.976Z,4.17
2018-09-09T05:55:53.369Z,6.67
2018-09-09T05:58:21.691Z,5.33
2018-09-09T06:00:50.065Z,6.70
2018-09-09T06:03:19.067Z,5.83
2018-09-09T06:05:47.456Z,6.00
2018-09-09T06:08:15.853Z,7.27
2018-09-09T06:10:44.234Z,5.10
2018-09-09T06:13:12.654Z,6.60
2018-09-09T06:15:40.979Z,6.60
2018-09-09T06:18:09.341Z,8.37
2018-09-09T06:20:37.724Z,10.10
2018-09-09T06:23:06.485Z,10.70
2018-09-09T06:25:34.947Z,7.20
2018-09-09T06:28:03.333Z,9.33
2018-09-09T06:30:31.660Z,12.53
2018-09-09T06:33:00.029Z,14.70
2018-09-09T06:35:28.418Z,7.17
2018-09-09T06:37:56.810Z,7.97
2018-09-09T06:40:25.147Z,5.30
2018-09-09T06:42:53.629Z,6.53
2018-09-09T06:45:21.959Z,6.10
2018-09-09T06:47:50.314Z,5.63
2018-09-09T06:50:18.713Z,5.80
2018-09-09T06:52:47.050Z,5.67
2018-09-09T06:55:15.640Z,10.73
2018-09-09T06:57:44.282Z,9.43
2018-09-09T07:00:12.674Z,10.80
2018-09-09T07:02:41.093Z,8.33
2018-09-09T07:05:09.498Z,8.80
2018-09-09T07:07:38.203Z,10.53
2018-09-09T07:10:06.615Z,7.60
2018-09-09T07:12:35.600Z,6.80
2018-09-09T07:15:04.008Z,8.80
2018-09-09T07:17:32.394Z,5.70
2018-09-09T07:20:00.795Z,7.20
2018-09-09T07:22:29.242Z,6.10
2018-09-09T07:24:57.851Z,6.50
2018-09-09T07:27:26.264Z,9.13
2018-09-09T07:29:54.631Z,7.67
2018-09-09T07:32:23.043Z,7.90
2018-09-09T07:34:51.482Z,5.40
2018-09-09T07:37:19.955Z,6.03
2018-09-09T07:39:48.347Z,8.53
2018-09-09T07:42:16.765Z,7.03
2018-09-09T07:44:45.195Z,6.07
2018-09-09T07:47:13.561Z,7.40
2018-09-09T07:49:42.045Z,8.67
2018-09-09T07:52:10.602Z,7.73
2018-09-09T07:54:38.978Z,6.23
2018-09-09T07:57:07.478Z,6.93
2018-09-09T07:59:35.837Z,7.50
2018-09-09T08:02:04.325Z,6.70
2018-09-09T08:04:32.711Z,9.10
2018-09-09T08:07:01.166Z,6.50
2018-09-09T08:09:29.535Z,8.10
2018-09-09T08:11:57.945Z,5.90
2018-09-09T08:14:34.475Z,7.60
2018-09-09T08:17:02.844Z,8.70
2018-09-09T08:19:31.191Z,5.40
2018-09-09T08:21:59.566Z,11.80
2018-09-09T08:24:28.012Z,7.37
2018-09-09T08:26:56.370Z,5.40
2018-09-09T08:29:24.764Z,7.37
2018-09-09T08:31:53.119Z,8.30
2018-09-09T08:34:21.522Z,7.60
2018-09-09T08:36:49.915Z,5.63
2018-09-09T08:39:18.301Z,5.30
2018-09-09T08:41:46.679Z,5.63
2018-09-09T08:44:15.094Z,6.30
2018-09-09T08:46:43.469Z,7.93
2018-09-09T08:49:12.902Z,5.83
2018-09-09T08:51:41.285Z,4.90
2018-09-09T08:54:09.581Z,4.73
2018-09-09T08:56:37.971Z,5.23
2018-09-09T08:59:06.351Z,3.63
2018-09-09T09:01:34.741Z,4.70
2018-09-09T09:04:03.100Z,4.03
2018-09-09T09:06:31.527Z,3.67
2018-09-09T09:08:59.959Z,2.83
2018-09-09T09:11:28.422Z,3.77
2018-09-09T09:13:56.816Z,5.60
2018-09-09T09:16:25.217Z,2.50
2018-09-09T09:18:53.559Z,3.53
2018-09-09T09:21:21.923Z,4.30
2018-09-09T09:23:50.256Z,6.37
2018-09-09T09:26:18.646Z,4.60
2018-09-09T09:28:47.036Z,3.80
2018-09-09T09:31:15.399Z,2.97
2018-09-09T09:33:43.828Z,3.47
2018-09-09T09:36:12.345Z,2.87
2018-09-09T09:38:41.604Z,3.23
2018-09-09T09:41:09.962Z,2.90
2018-09-09T09:43:38.423Z,4.63
2018-09-09T09:46:06.839Z,3.10
2018-09-09T09:48:35.178Z,3.13
2018-09-09T09:51:03.533Z,2.70
2018-09-09T09:53:31.919Z,3.20
2018-09-09T09:56:00.323Z,3.50
2018-09-09T09:58:28.774Z,3.40
2018-09-09T10:00:59.905Z,3.50
2018-09-09T10:03:28.350Z,4.43
2018-09-09T10:05:56.690Z,4.07
2018-09-09T10:08:25.150Z,4.77
2018-09-09T10:10:53.645Z,6.03
2018-09-09T10:13:22.050Z,5.03
2018-09-09T10:15:50.482Z,3.50
2018-09-09T10:18:18.887Z,5.30
2018-09-09T10:20:47.828Z,2.63
2018-09-09T10:23:16.243Z,6.10
2018-09-09T10:25:44.615Z,2.20
2018-09-09T10:28:13.093Z,4.80
2018-09-09T10:30:41.490Z,6.53
2018-09-09T10:33:09.886Z,5.73
2018-09-09T10:35:38.259Z,4.80
2018-09-09T10:38:06.650Z,4.10
2018-09-09T10:40:35.076Z,3.60
2018-09-09T10:43:03.447Z,4.87
2018-09-09T10:45:31.827Z,4.90
2018-09-09T10:48:00.303Z,2.80
2018-09-09T10:50:28.970Z,8.70
2018-09-09T10:52:57.291Z,5.63
2018-09-09T10:55:25.726Z,6.40
2018-09-09T10:57:54.120Z,4.60
2018-09-09T11:00:22.514Z,5.20
2018-09-09T11:02:50.824Z,3.67
2018-09-09T11:05:19.210Z,2.40
2018-09-09T11:07:47.555Z,2.87
2018-09-09T11:10:15.960Z,3.83
2018-09-09T11:12:44.333Z,2.30
2018-09-09T11:15:12.633Z,2.60
2018-09-09T11:17:41.002Z,3.30
2018-09-09T11:20:09.368Z,3.37
2018-09-09T11:22:37.754Z,2.20
2018-09-09T11:25:06.253Z,2.30
2018-09-09T11:27:34.573Z,2.90
2018-09-09T11:30:03.128Z,2.70
2018-09-09T11:32:31.325Z,2.53
2018-09-09T11:34:59.677Z,1.90
2018-09-09T11:37:28.042Z,2.07
2018-09-09T11:39:56.408Z,6.80
2018-09-09T11:42:24.793Z,1.93
2018-09-09T11:44:53.313Z,2.50
2018-09-09T11:47:21.681Z,2.20
2018-09-09T11:49:50.096Z,6.77
2018-09-09T11:52:18.462Z,1.80
2018-09-09T11:54:46.829Z,2.03
2018-09-09T11:57:15.256Z,2.00
2018-09-09T11:59:43.618Z,2.10
2018-09-09T12:02:11.982Z,3.30
2018-09-09T12:04:40.371Z,3.83
2018-09-09T12:07:08.735Z,2.50
2018-09-09T12:09:37.191Z,3.13
2018-09-09T12:12:05.565Z,3.93
2018-09-09T12:14:33.947Z,3.97
2018-09-09T12:17:02.290Z,2.63
2018-09-09T12:19:30.651Z,2.70
2018-09-09T12:21:59.644Z,2.60
2018-09-09T12:24:29.242Z,4.13
2018-09-09T12:26:58.175Z,2.20
2018-09-09T12:29:26.623Z,3.50
2018-09-09T12:31:54.973Z,3.60
2018-09-09T12:34:23.303Z,3.13
2018-09-09T12:36:51.719Z,8.40
2018-09-09T12:39:20.190Z,2.73
2018-09-09T12:41:48.535Z,2.50
2018-09-09T12:44:22.138Z,2.77
2018-09-09T12:46:55.733Z,2.33
2018-09-09T12:49:24.088Z,3.00
2018-09-09T12:51:53.043Z,1.63
2018-09-09T12:54:21.423Z,3.30
2018-09-09T12:56:49.836Z,2.60
2018-09-09T12:59:18.227Z,2.17
2018-09-09T13:01:46.642Z,2.20
2018-09-09T13:04:14.973Z,2.10
2018-09-09T13:06:43.362Z,2.90
2018-09-09T13:09:11.751Z,3.90
2018-09-09T13:11:40.176Z,2.97
2018-09-09T13:14:08.571Z,2.67
2018-09-09T13:16:36.964Z,2.30
2018-09-09T13:19:05.425Z,2.33
2018-09-09T13:21:33.843Z,2.30
2018-09-09T13:24:02.199Z,2.80
2018-09-09T13:26:30.615Z,3.30
2018-09-09T13:28:58.986Z,2.80
2018-09-09T13:31:27.398Z,3.13
2018-09-09T13:33:55.835Z,3.10
2018-09-09T13:36:24.282Z,2.70
2018-09-09T13:38:52.683Z,2.97
2018-09-09T13:41:21.071Z,2.80
2018-09-09T13:43:49.475Z,2.90
2018-09-09T13:46:17.869Z,2.40
2018-09-09T13:48:46.260Z,2.60
2018-09-09T13:51:14.634Z,2.50
2018-09-09T13:53:43.133Z,2.90
2018-09-09T13:56:11.536Z,2.33
2018-09-09T13:58:39.889Z,2.50
2018-09-09T14:01:08.274Z,2.00
2018-09-09T14:03:37.214Z,2.00
2018-09-09T14:06:05.598Z,2.07
2018-09-09T14:08:33.931Z,1.80
2018-09-09T14:11:02.362Z,1.80
2018-09-09T14:13:30.800Z,4.47
2018-09-09T14:15:59.175Z,2.07
2018-09-09T14:18:27.602Z,2.73
2018-09-09T14:20:56.003Z,1.63
2018-09-09T14:23:24.388Z,2.33
2018-09-09T14:25:52.863Z,1.50
2018-09-09T14:28:21.209Z,1.80
2018-09-09T14:30:49.719Z,1.73
2018-09-09T14:33:18.496Z,2.93
2018-09-09T14:35:46.854Z,3.57
2018-09-09T14:38:15.178Z,2.40
2018-09-09T14:40:43.579Z,1.53
2018-09-09T14:43:11.945Z,1.67
2018-09-09T14:45:40.375Z,2.00
2018-09-09T14:48:08.742Z,2.17
2018-09-09T14:50:37.078Z,1.60
2018-09-09T14:53:05.545Z,1.70
2018-09-09T14:55:34.258Z,1.80
2018-09-09T14:58:02.637Z,2.47
2018-09-09T15:00:31.090Z,1.93
2018-09-09T15:02:59.570Z,1.90
2018-09-09T15:05:28.685Z,1.53
2018-09-09T15:07:57.114Z,2.90
2018-09-09T15:10:25.527Z,1.80
2018-09-09T15:12:53.899Z,1.80
2018-09-09T15:15:22.303Z,2.33
2018-09-09T15:17:50.710Z,2.33
2018-09-09T15:20:19.091Z,1.90
2018-09-09T15:22:47.553Z,1.90
2018-09-09T15:25:15.983Z,2.13
2018-09-09T15:27:44.369Z,1.93
2018-09-09T15:30:12.780Z,3.37
2018-09-09T15:32:41.174Z,3.73
2018-09-09T15:35:10.269Z,2.53
2018-09-09T15:37:38.717Z,6.20
2018-09-09T15:40:07.274Z,2.70
2018-09-09T15:42:35.560Z,3.43
2018-09-09T15:45:03.912Z,3.23
2018-09-09T15:47:32.290Z,2.33
2018-09-09T15:50:00.682Z,2.80
2018-09-09T15:52:29.093Z,3.17
2018-09-09T15:54:57.436Z,2.30
2018-09-09T15:57:25.832Z,3.00
2018-09-09T15:59:54.337Z,2.07
2018-09-09T16:02:22.767Z,2.30
2018-09-09T16:04:51.158Z,2.10
2018-09-09T16:07:19.572Z,2.17
2018-09-09T16:09:48.008Z,3.87
2018-09-09T16:12:16.376Z,2.47
2018-09-09T16:14:44.792Z,3.70
2018-09-09T16:17:13.201Z,2.93
2018-09-09T16:19:41.596Z,2.50
2018-09-09T16:22:10.107Z,1.93
2018-09-09T16:24:43.356Z,2.50
2018-09-09T16:27:12.671Z,3.80
2018-09-09T16:29:41.079Z,4.13
2018-09-09T16:32:09.438Z,3.00
2018-09-09T16:34:37.851Z,2.07
2018-09-09T16:37:06.266Z,2.17
2018-09-09T16:39:34.660Z,2.13
2018-09-09T16:42:03.092Z,2.37
2018-09-09T16:44:31.553Z,2.10
2018-09-09T16:46:59.930Z,2.87
2018-09-09T16:49:28.259Z,5.53
2018-09-09T16:51:56.706Z,3.30
2018-09-09T16:54:25.106Z,3.80
2018-09-09T16:56:53.593Z,2.73
2018-09-09T16:59:22.211Z,2.77
2018-09-09T17:01:50.622Z,4.67
2018-09-09T17:04:19.066Z,2.80
2018-09-09T17:06:47.466Z,2.70
2018-09-09T17:09:15.860Z,2.57
2018-09-09T17:11:44.251Z,2.97
2018-09-09T17:14:12.703Z,2.50
2018-09-09T17:16:41.105Z,2.60
2018-09-09T17:19:09.526Z,2.90
2018-09-09T17:21:37.917Z,3.50
2018-09-09T17:24:06.375Z,2.30
2018-09-09T17:26:34.742Z,2.27
2018-09-09T17:29:03.140Z,2.83
2018-09-09T17:31:31.627Z,3.67
2018-09-09T17:34:00.001Z,2.90
2018-09-09T17:36:28.397Z,2.30
2018-09-09T17:38:56.851Z,3.93
2018-09-09T17:41:25.279Z,4.30
2018-09-09T17:43:53.623Z,2.93
2018-09-09T17:46:22.016Z,2.87
2018-09-09T17:48:50.354Z,7.27
2018-09-09T17:51:18.776Z,3.20
2018-09-09T17:53:47.172Z,2.63
2018-09-09T17:56:16.377Z,2.83
2018-09-09T17:58:44.758Z,7.60
2018-09-09T18:01:13.214Z,3.93
2018-09-09T18:03:41.611Z,3.50
2018-09-09T18:06:10.047Z,2.93
2018-09-09T18:08:38.450Z,2.70
2018-09-09T18:11:06.871Z,3.20
2018-09-09T18:13:35.384Z,3.03
2018-09-09T18:16:03.797Z,3.10
2018-09-09T18:18:32.748Z,4.83
2018-09-09T18:21:01.136Z,4.53
2018-09-09T18:23:32.727Z,4.13
2018-09-09T18:26:01.125Z,5.67
2018-09-09T18:28:29.518Z,4.10
2018-09-09T18:30:58.058Z,3.40
2018-09-09T18:33:26.396Z,4.80
2018-09-09T18:35:54.845Z,3.70
2018-09-09T18:38:23.204Z,5.00
2018-09-09T18:40:59.757Z,5.50
2018-09-09T18:43:28.854Z,5.87
2018-09-09T18:45:58.025Z,3.60
2018-09-09T18:48:26.491Z,3.93
2018-09-09T18:50:54.882Z,7.30
2018-09-09T18:53:25.510Z,7.57
2018-09-09T18:55:54.457Z,5.77
2018-09-09T18:58:22.841Z,4.80
2018-09-09T19:00:51.541Z,5.27
2018-09-09T19:03:19.983Z,10.17
2018-09-09T19:05:48.328Z,6.83
2018-09-09T19:08:16.724Z,6.40
2018-09-09T19:10:45.173Z,8.90
2018-09-09T19:13:13.606Z,7.63
2018-09-09T19:15:41.964Z,7.80
2018-09-09T19:18:10.406Z,8.70
2018-09-09T19:20:38.847Z,9.50
2018-09-09T19:23:07.309Z,8.97
2018-09-09T19:25:35.670Z,8.37
2018-09-09T19:28:04.085Z,8.20
2018-09-09T19:30:32.480Z,7.67
2018-09-09T19:33:01.005Z,6.23
2018-09-09T19:35:29.402Z,6.20
2018-09-09T19:37:57.835Z,6.00
2018-09-09T19:40:26.909Z,6.73
2018-09-09T19:42:55.330Z,7.10
2018-09-09T19:45:23.755Z,10.07
2018-09-09T19:47:52.133Z,6.63
2018-09-09T19:50:20.589Z,5.73
2018-09-09T19:52:48.990Z,8.70
2018-09-09T19:55:17.340Z,5.10
2018-09-09T19:57:45.746Z,5.40
2018-09-09T20:00:14.113Z,5.70
2018-09-09T20:02:42.550Z,11.33
2018-09-09T20:05:10.949Z,6.97
2018-09-09T20:07:39.376Z,12.00
2018-09-09T20:10:07.859Z,6.93
2018-09-09T20:12:36.291Z,8.57
2018-09-09T20:15:04.919Z,7.00
2018-09-09T20:17:33.278Z,6.57
2018-09-09T20:20:01.687Z,6.73
2018-09-09T20:22:30.100Z,6.30
2018-09-09T20:24:58.534Z,6.87
2018-09-09T20:27:26.911Z,8.37
2018-09-09T20:29:55.285Z,5.60
2018-09-09T20:32:23.716Z,6.33
2018-09-09T20:34:52.095Z,6.57
2018-09-09T20:37:21.042Z,8.47
2018-09-09T20:39:49.510Z,5.60
2018-09-09T20:42:17.874Z,5.30
2018-09-09T20:44:46.255Z,7.57
2018-09-09T20:47:14.668Z,5.30
2018-09-09T20:49:43.066Z,6.60
2018-09-09T20:52:11.658Z,5.30
2018-09-09T20:54:40.075Z,5.10
2018-09-09T20:57:08.463Z,5.50
2018-09-09T20:59:36.790Z,6.80
2018-09-09T21:02:05.179Z,5.37
2018-09-09T21:04:33.585Z,7.23
2018-09-09T21:07:01.979Z,4.83
2018-09-09T21:09:30.407Z,5.70
2018-09-09T21:11:58.789Z,5.47
2018-09-09T21:14:27.190Z,8.20
2018-09-09T21:16:55.674Z,7.07
2018-09-09T21:19:24.067Z,7.17
2018-09-09T21:21:53.178Z,5.23
2018-09-09T21:24:21.547Z,5.93
2018-09-09T21:26:49.920Z,5.40
2018-09-09T21:29:18.293Z,6.67
2018-09-09T21:31:46.695Z,4.63
2018-09-09T21:34:15.065Z,7.50
2018-09-09T21:36:43.426Z,4.77
2018-09-09T21:39:19.126Z,7.23
2018-09-09T21:41:47.570Z,6.20
2018-09-09T21:44:15.937Z,6.87
2018-09-09T21:46:44.287Z,4.60
2018-09-09T21:49:12.679Z,6.57
2018-09-09T21:51:41.120Z,5.83
2018-09-09T21:54:09.491Z,5.67
2018-09-09T21:56:37.881Z,5.70
2018-09-09T21:59:06.234Z,4.23
2018-09-09T22:01:40.083Z,4.40
2018-09-09T22:04:08.466Z,4.43
2018-09-09T22:06:36.833Z,4.73
2018-09-09T22:09:08.207Z,4.50
2018-09-09T22:11:36.975Z,5.77
2018-09-09T22:14:05.341Z,7.03
2018-09-09T22:16:34.055Z,5.20
2018-09-09T22:19:02.851Z,4.97
2018-09-09T22:21:31.246Z,4.47
2018-09-09T22:23:59.649Z,5.67
2018-09-09T22:26:28.033Z,5.23
2018-09-09T22:28:56.421Z,4.70
2018-09-09T22:31:24.767Z,5.27
2018-09-09T22:33:53.066Z,5.53
2018-09-09T22:36:21.428Z,4.67
2018-09-09T22:38:49.813Z,5.23
2018-09-09T22:41:18.138Z,5.50
2018-09-09T22:43:46.489Z,7.10
2018-09-09T22:46:14.839Z,11.40
2018-09-09T22:48:43.196Z,5.30
2018-09-09T22:51:11.675Z,7.90
2018-09-09T22:53:40.036Z,4.03
2018-09-09T22:56:08.413Z,5.50
2018-09-09T22:58:36.803Z,5.13
2018-09-09T23:01:05.261Z,5.80
2018-09-09T23:03:33.622Z,6.10
2018-09-09T23:06:01.992Z,5.07
2018-09-09T23:08:30.374Z,10.90
2018-09-09T23:10:58.922Z,5.67
2018-09-09T23:13:27.293Z,5.33
2018-09-09T23:15:55.670Z,10.40
2018-09-09T23:18:24.010Z,4.60
2018-09-09T23:20:52.538Z,5.53
2018-09-09T23:23:20.874Z,5.10
2018-09-09T23:25:49.227Z,7.23
2018-09-09T23:28:17.562Z,4.50
2018-09-09T23:30:46.013Z,4.13
2018-09-09T23:33:14.360Z,5.53
2018-09-09T23:35:42.746Z,3.90
2018-09-09T23:38:11.075Z,5.97
2018-09-09T23:40:39.425Z,5.70
2018-09-09T23:43:07.857Z,4.30
2018-09-09T23:45:36.329Z,4.97
2018-09-09T23:48:04.933Z,5.90
2018-09-09T23:50:33.316Z,4.00
2018-09-09T23:53:01.662Z,4.83
2018-09-09T23:55:30.036Z,4.83
2018-09-09T23:57:58.364Z,5.30
